createdAt,value
2019-02-16T00:04:17.289Z,34.23
2019-02-16T00:09:22.316Z,30.17
2019-02-16T00:14:27.392Z,36.00
2019-02-16T00:19:32.532Z,53.13
2019-02-16T00:24:37.551Z,45.13
2019-02-16T00:29:43.760Z,42.90
2019-02-16T00:34:48.846Z,38.07
2019-02-16T00:39:54.116Z,33.63
2019-02-16T00:44:59.471Z,31.60
2019-02-16T00:50:04.590Z,33.33
2019-02-16T00:55:09.738Z,33.47
2019-02-16T01:00:19.193Z,36.33
2019-02-16T01:05:24.266Z,29.77
2019-02-16T01:10:29.448Z,34.67
2019-02-16T01:15:34.527Z,34.93
2019-02-16T01:20:39.655Z,34.47
2019-02-16T01:25:44.751Z,37.97
2019-02-16T01:30:50.222Z,34.47
2019-02-16T01:35:55.883Z,34.07
2019-02-16T01:41:01.123Z,33.73
2019-02-16T01:46:06.248Z,34.73
2019-02-16T01:51:11.329Z,33.77
2019-02-16T01:56:16.341Z,34.63
2019-02-16T02:01:21.883Z,35.47
2019-02-16T02:06:26.967Z,34.07
2019-02-16T02:11:32.092Z,31.37
2019-02-16T02:16:37.268Z,36.43
2019-02-16T02:21:42.325Z,34.40
2019-02-16T02:26:47.295Z,33.23
2019-02-16T02:31:52.384Z,37.57
2019-02-16T02:36:57.581Z,42.10
2019-02-16T02:42:02.690Z,43.33
2019-02-16T02:47:07.846Z,39.83
2019-02-16T02:52:12.906Z,38.63
2019-02-16T02:57:18.014Z,36.87
2019-02-16T03:02:23.056Z,37.77
2019-02-16T03:07:28.165Z,35.60
2019-02-16T03:12:33.677Z,42.70
2019-02-16T03:17:38.833Z,37.63
2019-02-16T03:23:30.251Z,36.57
2019-02-16T03:28:52.011Z,34.73
2019-02-16T03:34:05.285Z,36.87
2019-02-16T03:39:19.743Z,34.60
2019-02-16T03:44:25.047Z,36.33
2019-02-16T03:49:30.141Z,38.50
2019-02-16T03:54:35.096Z,31.70
2019-02-16T03:59:40.073Z,31.67
2019-02-16T04:04:46.228Z,32.97
2019-02-16T04:09:51.606Z,35.50
2019-02-16T04:14:57.175Z,42.10
2019-02-16T04:20:05.958Z,35.90
2019-02-16T04:25:11.622Z,41.77
2019-02-16T04:30:19.404Z,36.57
2019-02-16T04:35:28.152Z,38.87
2019-02-16T04:40:33.710Z,43.30
2019-02-16T04:45:39.252Z,40.90
2019-02-16T04:50:47.442Z,37.03
2019-02-16T04:55:55.939Z,38.40
2019-02-16T05:01:01.113Z,44.03
2019-02-16T05:06:07.125Z,35.40
2019-02-16T05:11:12.189Z,33.57
2019-02-16T05:16:20.263Z,39.70
2019-02-16T05:21:28.856Z,39.03
2019-02-16T05:26:37.468Z,40.73
2019-02-16T05:31:52.469Z,39.87
2019-02-16T05:37:01.208Z,35.67
2019-02-16T05:42:11.745Z,38.47
2019-02-16T05:47:19.063Z,38.70
2019-02-16T05:52:25.137Z,40.77
2019-02-16T05:57:34.705Z,38.33
2019-02-16T06:02:40.275Z,45.60
2019-02-16T06:07:45.557Z,43.93
2019-02-16T06:12:53.812Z,35.83
2019-02-16T06:17:59.826Z,41.27
2019-02-16T06:23:05.034Z,40.67
2019-02-16T06:28:10.689Z,38.70
2019-02-16T06:33:16.095Z,40.67
2019-02-16T06:38:21.302Z,38.83
2019-02-16T06:43:26.932Z,35.97
2019-02-16T06:48:33.955Z,41.00
2019-02-16T06:53:42.276Z,39.20
2019-02-16T06:58:47.861Z,37.80
2019-02-16T07:03:53.452Z,34.40
2019-02-16T07:09:07.984Z,34.80
2019-02-16T07:14:13.184Z,31.00
2019-02-16T07:19:24.127Z,36.60
2019-02-16T07:24:29.525Z,36.07
2019-02-16T07:29:34.637Z,32.90
2019-02-16T07:34:39.725Z,34.53
2019-02-16T07:39:44.826Z,31.90
2019-02-16T07:45:07.956Z,33.97
2019-02-16T07:50:27.532Z,37.00
2019-02-16T07:55:54.464Z,37.00
2019-02-16T08:01:17.289Z,35.57
2019-02-16T08:06:34.230Z,34.20
2019-02-16T08:11:48.588Z,33.80
2019-02-16T08:17:00.042Z,42.27
2019-02-16T08:22:22.763Z,32.90
2019-02-16T08:27:39.057Z,30.10
2019-02-16T08:33:05.995Z,30.03
2019-02-16T08:38:36.295Z,26.17
2019-02-16T08:43:51.051Z,31.17
2019-02-16T08:49:19.433Z,28.80
2019-02-16T08:54:30.775Z,32.27
2019-02-16T09:00:04.263Z,28.20
2019-02-16T09:05:16.202Z,23.73
2019-02-16T09:10:49.101Z,22.43
2019-02-16T09:16:13.176Z,20.43
2019-02-16T09:21:28.641Z,23.57
2019-02-16T09:26:51.711Z,20.63
2019-02-16T09:32:18.994Z,18.27
2019-02-16T09:37:41.035Z,24.50
2019-02-16T09:43:04.293Z,20.53
2019-02-16T09:48:18.115Z,21.20
2019-02-16T09:53:41.620Z,19.67
2019-02-16T09:59:05.993Z,20.60
2019-02-16T10:04:29.087Z,21.10
2019-02-16T10:09:52.392Z,23.55
2019-02-16T10:15:15.136Z,21.23
2019-02-16T10:20:29.073Z,21.57
2019-02-16T10:25:54.995Z,19.00
2019-02-16T10:31:21.680Z,18.87
2019-02-16T10:36:44.280Z,15.57
2019-02-16T10:42:06.067Z,14.78
2019-02-16T10:47:30.167Z,16.95
2019-02-16T10:53:03.419Z,17.02
2019-02-16T10:58:29.385Z,16.70
2019-02-16T11:03:52.389Z,14.07
2019-02-16T11:09:07.948Z,13.40
2019-02-16T11:14:21.753Z,16.73
2019-02-16T11:19:42.546Z,13.90
2019-02-16T11:25:05.511Z,13.43
2019-02-16T11:30:29.601Z,13.37
2019-02-16T11:36:09.010Z,14.93
2019-02-16T11:41:22.594Z,14.65
2019-02-16T11:46:45.530Z,14.43
2019-02-16T11:51:59.718Z,14.20
2019-02-16T11:57:42.229Z,15.00
2019-02-16T12:03:19.198Z,15.18
2019-02-16T12:08:44.148Z,14.03
2019-02-16T12:14:17.908Z,19.20
2019-02-16T12:19:30.963Z,13.30
2019-02-16T12:25:05.357Z,12.82
2019-02-16T12:30:28.994Z,13.13
2019-02-16T12:35:51.231Z,13.78
2019-02-16T12:41:21.832Z,14.00
2019-02-16T12:46:36.449Z,12.87
2019-02-16T12:51:57.858Z,15.40
2019-02-16T12:57:07.866Z,20.23
2019-02-16T13:02:30.624Z,20.00
2019-02-16T13:07:49.989Z,16.25
2019-02-16T13:13:08.558Z,14.25
2019-02-16T13:18:28.423Z,16.80
2019-02-16T13:23:46.598Z,15.40
2019-02-16T13:29:10.754Z,15.65
2019-02-16T13:34:33.921Z,17.17
2019-02-16T13:39:53.043Z,15.75
2019-02-16T13:45:07.607Z,15.18
2019-02-16T13:50:30.696Z,14.10
2019-02-16T13:56:00.678Z,14.38
2019-02-16T14:01:20.904Z,13.30
2019-02-16T14:06:44.665Z,12.90
2019-02-16T14:12:03.771Z,13.43
2019-02-16T14:17:27.437Z,14.78
2019-02-16T14:22:32.483Z,17.10
2019-02-16T14:27:37.547Z,15.20
2019-02-16T14:32:42.697Z,14.07
2019-02-16T14:38:02.425Z,14.25
2019-02-16T14:43:07.442Z,15.13
2019-02-16T14:48:12.515Z,15.90
2019-02-16T14:53:17.886Z,13.72
2019-02-16T14:58:22.887Z,15.30
2019-02-16T15:03:28.009Z,19.35
2019-02-16T15:08:33.163Z,18.77
2019-02-16T15:13:40.354Z,49.80
2019-02-16T15:18:45.652Z,22.90
2019-02-16T15:23:51.457Z,14.58
2019-02-16T15:28:56.870Z,15.72
2019-02-16T15:34:02.100Z,21.25
2019-02-16T15:39:13.191Z,20.10
2019-02-16T15:44:18.401Z,18.80
2019-02-16T15:49:24.156Z,20.05
2019-02-16T15:54:29.456Z,20.30
2019-02-16T15:59:35.415Z,18.42
2019-02-16T16:04:40.584Z,19.60
2019-02-16T16:10:20.530Z,20.52
2019-02-16T16:15:47.550Z,19.62
2019-02-16T16:21:11.891Z,20.10
2019-02-16T16:26:36.090Z,19.42
2019-02-16T16:32:01.219Z,17.00
2019-02-16T16:37:23.363Z,20.82
2019-02-16T16:42:44.347Z,22.40
2019-02-16T16:48:08.961Z,22.25
2019-02-16T16:53:38.676Z,19.60
2019-02-16T16:59:05.689Z,20.50
2019-02-16T17:04:25.027Z,19.52
2019-02-16T17:10:01.281Z,25.95
2019-02-16T17:15:22.962Z,19.07
2019-02-16T17:20:58.021Z,21.35
2019-02-16T17:26:20.830Z,21.15
2019-02-16T17:31:45.142Z,21.13
2019-02-16T17:37:02.380Z,22.03
2019-02-16T17:42:19.704Z,21.07
2019-02-16T17:47:43.975Z,23.97
2019-02-16T17:53:17.563Z,28.43
2019-02-16T17:58:34.347Z,28.20
2019-02-16T18:03:48.327Z,33.47
2019-02-16T18:09:11.898Z,29.10
2019-02-16T18:14:42.371Z,29.17
2019-02-16T18:20:06.585Z,28.10
2019-02-16T18:25:35.995Z,25.53
2019-02-16T18:31:00.147Z,30.53
2019-02-16T18:36:23.057Z,34.50
2019-02-16T18:41:56.133Z,33.97
2019-02-16T18:47:19.795Z,36.47
2019-02-16T18:52:43.315Z,23.73
2019-02-16T18:58:08.334Z,25.27
2019-02-16T19:03:27.664Z,27.67
2019-02-16T19:08:57.859Z,23.67
2019-02-16T19:14:24.932Z,26.17
2019-02-16T19:19:51.981Z,27.93
2019-02-16T19:25:16.116Z,30.63
2019-02-16T19:30:40.511Z,27.77
2019-02-16T19:35:53.076Z,32.90
2019-02-16T19:41:17.152Z,33.60
2019-02-16T19:46:41.154Z,36.50
2019-02-16T19:52:23.564Z,24.27
2019-02-16T19:57:40.722Z,26.40
2019-02-16T20:02:53.644Z,29.07
2019-02-16T20:08:31.264Z,30.60
2019-02-16T20:13:52.151Z,25.57
2019-02-16T20:19:34.663Z,26.20
2019-02-16T20:24:54.213Z,23.50
2019-02-16T20:30:27.865Z,28.93
2019-02-16T20:35:45.423Z,29.40
2019-02-16T20:41:08.964Z,25.40
2019-02-16T20:46:33.211Z,22.23
2019-02-16T20:51:51.606Z,25.63
2019-02-16T20:57:03.975Z,25.47
2019-02-16T21:02:28.458Z,26.20
2019-02-16T21:07:48.256Z,28.83
2019-02-16T21:13:13.396Z,29.70
2019-02-16T21:18:37.835Z,28.13
2019-02-16T21:24:05.146Z,30.93
2019-02-16T21:29:22.552Z,29.03
2019-02-16T21:34:46.801Z,30.27
2019-02-16T21:40:20.000Z,32.70
2019-02-16T21:45:47.658Z,32.03
2019-02-16T21:51:13.015Z,27.67
2019-02-16T21:56:37.903Z,31.10
2019-02-16T22:01:52.740Z,32.20
2019-02-16T22:07:22.702Z,33.67
2019-02-16T22:12:59.086Z,50.03
2019-02-16T22:18:04.348Z,34.47
2019-02-16T22:23:10.144Z,35.30
2019-02-16T22:28:20.347Z,33.10
2019-02-16T22:33:22.108Z,38.03
2019-02-16T22:38:27.260Z,35.97
2019-02-16T22:43:32.775Z,34.00
2019-02-16T22:48:38.140Z,25.70
2019-02-16T22:53:43.648Z,29.40
2019-02-16T22:58:48.748Z,29.47
2019-02-16T23:03:53.944Z,32.03
2019-02-16T23:08:59.575Z,32.20
2019-02-16T23:14:04.847Z,31.50
2019-02-16T23:19:10.020Z,30.93
2019-02-16T23:24:15.140Z,34.50
2019-02-16T23:29:22.444Z,32.90
2019-02-16T23:34:27.720Z,30.17
2019-02-16T23:39:33.047Z,29.90
2019-02-16T23:44:38.102Z,32.70
2019-02-16T23:49:43.690Z,37.07
2019-02-16T23:54:49.256Z,33.92
2019-02-16T23:59:54.337Z,32.42
